Montmorenci, IN (47962)

1:03 AM EDT on September 16, 2014 (GMT -0400)
Pine View Farms | Change Station
CLOSE
Current Station
Personal Weather Station
Location: West Lafayette, IN
Elevation: 696 ft
Nearby Weather Stations

Elev 696 ft 40.47 °N, 86.95 °W | Updated 2 seconds ago

Overcast
Overcast
57.1 °F
Feels Like 57.1 °F
N
2.9
Wind Variable Wind from NNE
Gusts 2.9 mph

Today
High -- | Low -- °F
--% Chance of Precip.
Yesterday
High -- | Low -- °F
Precip. -- in
7:29 AM 7:55 PM
Waning Gibbous, 49% visible
Pressure 30.14 in
Visibility 9.0 miles
Clouds Overcast 500 ft
Dew Point 54 °F
Humidity 89%
Rainfall 0.00 in
Snow Depth Not available.
UV 0 out of 12
Pollen 4.90 out of 12
Air Quality Not available.
Flu Activity Not available.
METAR KLAF 160454Z AUTO 01004KT 9SM OVC005 13/12 A3014 RMK AO2 CIG 005V009 SLP205 T01280122 401440078

More Conditions Fewer Conditions

Pressure 30.14 in
Visibility 9.0 miles
Clouds Overcast 500 ft
Dew Point 54 °F
Humidity 89%
Rainfall 0.00 in
Snow Depth Not available.
UV 0 out of 12
Pollen 4.90 out of 12
Air Quality Not available.
Flu Activity Not available.
METAR KLAF 160454Z AUTO 01004KT 9SM OVC005 13/12 A3014 RMK AO2 CIG 005V009 SLP205 T01280122 401440078

More Conditions Fewer Conditions

10-Day Weather Forecast

Almanac

Astronomy

Sep. 16, 2014 Rise Set
Actual Time 7:29 AM EDT 7:55 PM EDT
Civil Twilight 7:02 AM EDT 8:22 PM EDT
Nautical Twilight 6:30 AM EDT 8:54 PM EDT
Astronomical Twilight 5:57 AM EDT 9:27 PM EDT
Moon 12:38 AM EDT 3:19 PM EDT
Length of Visible Light 13h 20m
Length of Day
12h 25m
Tomorrow will be 2m 39s shorter.
Waning Gibbous, 49% of the Moon is Illuminated
Today
Waning Gibbous
Sep 24
New
Oct 1
First Quarter
Oct 8
Full
Oct 15
Last Quarter

Community

WunderPhotos

Upload Photos

1,753,702 photos uploaded!

Nearby

Snow Depth

Station Depth Elevation
No new snow has been reported.

Earthquake Activity

City Distance Mag. Time & Date
No recent earthquake activity has been reported nearby.
Minimum magnitude displayed is 2.5.

Coastal Water Temperatures

Place Temperature
No Stations Reporting

Nearby Weather Stations